Aeroporto :
LOGIN :

Iscrizione | Disclaimer

   EN    FR    IT 

 










Sommario :    VFR   VFR Marginale   IFR   IFR Intensivo   IFR Molto Intensivo
Visibilità : 
Base nubi : 
>= 8 km
>= 3000ft
5 / 8 km
1000 / 3000 ft
1500m / 5 km
500 / 1000 ft
800 / 1500m
200 / 500 ft
< 800m
< 200 ft
Simboli :   Temporali  Nebbia  Neve Forte  Precipitazioni Forti  Vento > 20 kt
SIGMETs :   Varie  Temporali  Ghiacco  Turbolenza  Onda orograficha  Ceneri Vulcaniche






- Altitudine del aeroporto : 154 ft
- Codice IATA : SZZ


EPSC - Szczecin Goleniow

ULTIMO METAR :
  • 111500Z 31007KT 250V340 9999 FEW044TCU 19/08 Q1021

METARs OBSOLETI :
  • 111430Z 29008KT 9999 FEW043TCU 17/08 Q1021
  • 111400Z 29008KT 240V330 9999 FEW044TCU 18/07 Q1021
  • 111330Z 26010KT 220V290 9999 FEW045 18/07 Q1021
  • 111300Z 27008KT 210V300 9999 FEW045 18/08 Q1021
  • 111230Z 27009KT 240V300 9999 FEW046 17/07 Q1021

TAF TAF EPSC
Valido dal 11 a 12 ore il 12 a 12 ore UTC


111130Z 1112/1212 27010KT CAVOK
TEMPO 1112/1117 31015G25KT SCT030TCU
PROB40
TEMPO 1209/1212 BKN030TCU



MetMap, La meteo Aeronautica in un colpo d'occhio ! - Copyright ORBIFLY Dicembre 2007 - Disclaimer

ORBIFLY MET'MAP TEAM :

Programmazione e sviluppo : Alexandra Zaïnal
Concezione : Baudouin d'Aumeries
Aiuto per la programmazione : Marc-Olivier Méhu
Supporto tecnico e logistico : Manuel Goepfert
Aiuto per la traduzione : Arnaldo La Scala

Contatto : metmap@orbifly.com




FONTI E CREDITI :

   NOAA